Time;durP1;ratioP1;P1;durP2;ratioP2;P2;SDS_P1;SDS_P2;PMS_P1;PMS_P2;Temp;Humidity;BMP_temperature;BMP_pressure;BME280_temperature;BME280_humidity;BME280_pressure;Samples;Min_cycle;Max_cycle;Signal;HPM_P1;HPM_P2
2023/03/23 00:01:12;;;;;;;71.28;6.10;;;13.10;99.90;;;;;;5040347;28;20222;-84
2023/03/23 00:03:39;;;;;;;66.57;6.25;;;13.10;99.90;;;;;;5022846;28;20196;-83
2023/03/23 00:06:06;;;;;;;65.97;6.65;;;13.00;99.90;;;;;;5040784;28;20165;-83
2023/03/23 00:08:37;;;;;;;65.65;5.93;;;13.00;99.90;;;;;;5022868;28;20169;-83
2023/03/23 00:11:04;;;;;;;72.70;5.78;;;13.00;99.90;;;;;;5050439;28;20223;-83
2023/03/23 00:13:30;;;;;;;65.95;6.70;;;12.90;99.90;;;;;;5038838;28;20228;-83
2023/03/23 00:15:56;;;;;;;65.40;6.07;;;12.90;99.90;;;;;;5022297;28;20173;-83
2023/03/23 00:18:23;;;;;;;64.93;6.32;;;12.90;99.90;;;;;;5040335;28;20768;-83
2023/03/23 00:20:54;;;;;;;64.68;5.50;;;12.90;99.90;;;;;;5040950;28;20177;-83
2023/03/23 00:23:23;;;;;;;64.32;5.50;;;12.90;99.90;;;;;;5039988;28;20280;-83
2023/03/23 00:25:57;;;;;;;64.28;4.68;;;12.90;99.90;;;;;;5040394;28;20158;-83
2023/03/23 00:28:26;;;;;;;65.68;5.68;;;12.90;99.90;;;;;;5039793;28;20153;-83
2023/03/23 00:31:01;;;;;;;66.55;5.65;;;12.80;99.90;;;;;;5022473;28;20196;-83
2023/03/23 00:33:29;;;;;;;64.38;5.03;;;12.80;99.90;;;;;;5040477;28;20188;-83
2023/03/23 00:35:55;;;;;;;65.07;4.63;;;12.90;99.90;;;;;;5022781;28;20533;-83
2023/03/23 00:38:23;;;;;;;65.78;5.18;;;12.90;99.90;;;;;;5040711;28;20192;-83
2023/03/23 00:40:49;;;;;;;69.88;5.32;;;12.80;99.90;;;;;;5040696;28;20187;-83
2023/03/23 00:43:17;;;;;;;65.13;5.72;;;12.80;99.90;;;;;;5034648;28;20236;-84
2023/03/23 00:45:52;;;;;;;65.53;5.22;;;12.80;99.90;;;;;;5039087;28;20237;-84
2023/03/23 00:48:23;;;;;;;65.22;5.30;;;12.80;99.90;;;;;;5038194;28;20184;-83
2023/03/23 00:50:50;;;;;;;65.32;6.53;;;12.90;99.90;;;;;;5025222;28;20190;-84
2023/03/23 00:53:17;;;;;;;65.55;5.40;;;12.80;99.90;;;;;;5025763;28;20208;-84
2023/03/23 00:55:43;;;;;;;65.03;6.20;;;12.90;99.90;;;;;;5043340;28;20161;-83
2023/03/23 00:58:10;;;;;;;65.93;6.57;;;12.80;99.90;;;;;;5043354;28;20166;-83
2023/03/23 01:00:36;;;;;;;65.22;5.80;;;12.80;99.90;;;;;;5043194;28;20162;-83
2023/03/23 01:03:01;;;;;;;65.10;4.77;;;12.80;99.90;;;;;;5043298;28;20273;-83
2023/03/23 01:05:31;;;;;;;66.20;4.77;;;12.90;99.90;;;;;;5039466;28;20408;-83
2023/03/23 01:08:01;;;;;;;65.68;5.80;;;12.80;99.90;;;;;;5036854;28;20158;-83
2023/03/23 01:10:27;;;;;;;65.28;5.35;;;12.80;99.90;;;;;;5042938;28;20660;-84
2023/03/23 01:12:54;;;;;;;64.67;5.27;;;12.80;99.90;;;;;;5042843;28;20185;-84
2023/03/23 01:15:21;;;;;;;65.13;5.70;;;12.80;99.90;;;;;;5042346;28;20461;-83
2023/03/23 01:17:47;;;;;;;67.15;6.13;;;12.80;99.90;;;;;;5025627;28;20506;-84
2023/03/23 01:20:14;;;;;;;65.60;5.23;;;12.90;99.90;;;;;;5042674;28;20176;-83
2023/03/23 01:22:41;;;;;;;65.53;5.25;;;12.90;99.90;;;;;;5024296;28;20551;-83
2023/03/23 01:25:09;;;;;;;65.13;4.93;;;12.90;99.90;;;;;;5042196;28;20219;-83
2023/03/23 01:27:35;;;;;;;64.85;5.85;;;12.90;99.90;;;;;;5042937;28;20643;-84
2023/03/23 01:30:01;;;;;;;66.10;5.00;;;12.90;99.90;;;;;;5043127;28;20193;-83
2023/03/23 01:32:27;;;;;;;67.15;5.35;;;12.90;99.90;;;;;;5057049;28;20627;-83
2023/03/23 01:34:53;;;;;;;65.00;5.33;;;12.90;99.90;;;;;;5043356;28;20181;-83
2023/03/23 01:37:19;;;;;;;64.93;5.60;;;12.90;99.90;;;;;;5042108;28;20407;-83
2023/03/23 01:39:45;;;;;;;66.20;5.75;;;12.80;99.90;;;;;;5042159;28;20157;-83
2023/03/23 01:42:11;;;;;;;65.07;4.80;;;12.90;99.90;;;;;;5042881;28;20176;-83
2023/03/23 01:44:37;;;;;;;65.43;4.88;;;12.90;99.90;;;;;;5043268;28;20169;-83
2023/03/23 01:47:03;;;;;;;65.20;5.70;;;13.00;99.90;;;;;;5043324;28;20180;-83
2023/03/23 01:49:37;;;;;;;65.67;6.60;;;12.90;99.90;;;;;;5042897;28;20185;-83
2023/03/23 01:52:07;;;;;;;65.50;6.55;;;12.80;99.90;;;;;;5043277;28;20384;-83
2023/03/23 01:54:36;;;;;;;68.63;6.82;;;12.80;99.90;;;;;;5042267;28;20154;-83
2023/03/23 01:57:13;;;;;;;65.80;6.88;;;12.70;99.90;;;;;;5026471;28;20168;-82
2023/03/23 01:59:42;;;;;;;67.88;10.38;;;12.70;99.90;;;;;;5026941;28;20303;-82
2023/03/23 02:02:10;;;;;;;68.18;9.20;;;12.60;99.90;;;;;;5039692;28;20170;-82
2023/03/23 02:04:36;;;;;;;65.90;7.47;;;12.60;99.90;;;;;;5044259;28;20164;-82
2023/03/23 02:07:03;;;;;;;68.38;8.77;;;12.60;99.90;;;;;;5044144;28;20196;-82
2023/03/23 02:09:29;;;;;;;66.40;8.38;;;12.50;99.90;;;;;;5045111;28;20161;-82
2023/03/23 02:11:56;;;;;;;69.95;10.15;;;12.50;99.90;;;;;;5027287;28;20165;-82
2023/03/23 02:14:25;;;;;;;68.93;10.63;;;12.40;99.90;;;;;;5045444;28;20199;-82
2023/03/23 02:17:15;;;;;;;66.20;8.70;;;12.40;99.90;;;;;;5044426;28;20246;-82
2023/03/23 02:20:09;;;;;;;67.28;10.57;;;12.40;99.90;;;;;;5044648;28;20505;-82
2023/03/23 02:23:08;;;;;;;69.28;9.35;;;12.30;99.90;;;;;;5042335;28;20196;-82
2023/03/23 02:26:02;;;;;;;68.75;11.07;;;12.30;99.90;;;;;;5038776;28;20172;-82
2023/03/23 02:28:39;;;;;;;68.70;10.20;;;12.40;99.90;;;;;;5041072;28;20161;-82
2023/03/23 02:31:28;;;;;;;67.47;9.82;;;12.30;99.90;;;;;;5042409;28;20212;-82
2023/03/23 02:34:15;;;;;;;67.15;9.23;;;12.30;99.90;;;;;;5043642;28;20240;-82
2023/03/23 02:36:50;;;;;;;68.65;9.63;;;12.40;99.90;;;;;;5044615;28;20145;-82
2023/03/23 02:39:32;;;;;;;66.72;9.90;;;12.30;99.90;;;;;;5044012;28;20153;-82
2023/03/23 02:42:04;;;;;;;65.90;7.25;;;12.30;99.90;;;;;;5044128;28;20211;-83
2023/03/23 02:44:32;;;;;;;67.72;10.90;;;12.30;99.90;;;;;;5025360;28;20165;-83
2023/03/23 02:47:01;;;;;;;66.22;9.50;;;12.20;99.90;;;;;;5041231;28;20180;-82
2023/03/23 02:49:31;;;;;;;66.32;9.70;;;12.20;99.90;;;;;;5041640;28;20176;-83
2023/03/23 02:51:59;;;;;;;67.75;10.32;;;12.20;99.90;;;;;;5050265;28;20252;-83
2023/03/23 02:54:26;;;;;;;67.38;10.02;;;12.20;99.90;;;;;;5040162;28;20211;-83
2023/03/23 02:56:53;;;;;;;67.10;10.57;;;12.20;99.90;;;;;;5041141;28;20172;-83
2023/03/23 02:59:19;;;;;;;66.43;9.68;;;12.20;99.90;;;;;;5041971;28;20157;-83
2023/03/23 03:01:59;;;;;;;66.37;10.30;;;12.20;99.90;;;;;;5032578;28;20180;-83
2023/03/23 03:04:28;;;;;;;66.95;9.07;;;12.20;99.90;;;;;;5040835;28;20161;-83
2023/03/23 03:07:15;;;;;;;66.22;8.38;;;12.20;99.90;;;;;;5041419;28;20169;-83
2023/03/23 03:09:51;;;;;;;67.00;9.90;;;12.20;99.90;;;;;;5032170;28;20625;-83
2023/03/23 03:12:46;;;;;;;66.30;9.40;;;12.20;99.90;;;;;;5042046;28;20177;-83
2023/03/23 03:15:34;;;;;;;67.55;9.75;;;12.20;99.90;;;;;;5023280;28;20188;-83
2023/03/23 03:18:02;;;;;;;66.78;9.90;;;12.20;99.90;;;;;;5033840;28;20200;-83
2023/03/23 03:20:30;;;;;;;65.95;9.35;;;12.20;99.90;;;;;;5039220;28;20165;-83
2023/03/23 03:22:57;;;;;;;66.40;8.95;;;12.20;99.90;;;;;;5022643;28;20312;-83
2023/03/23 03:25:25;;;;;;;66.53;9.30;;;12.20;99.90;;;;;;5039589;28;20528;-83
2023/03/23 03:27:53;;;;;;;66.38;8.40;;;12.20;99.90;;;;;;5031524;28;20169;-83
2023/03/23 03:30:26;;;;;;;67.20;9.07;;;12.30;99.90;;;;;;5039773;28;20181;-83
2023/03/23 03:32:55;;;;;;;66.00;7.90;;;12.20;99.90;;;;;;5032628;28;20243;-83
2023/03/23 03:35:23;;;;;;;66.30;7.43;;;12.20;99.90;;;;;;5039921;28;20162;-83
2023/03/23 03:37:50;;;;;;;68.78;8.07;;;12.20;99.90;;;;;;5039554;28;20161;-83
2023/03/23 03:40:19;;;;;;;66.30;9.10;;;12.30;99.90;;;;;;5035264;28;20193;-82
2023/03/23 03:42:45;;;;;;;65.75;7.40;;;12.20;99.90;;;;;;5030760;28;20189;-83
2023/03/23 03:45:14;;;;;;;65.85;8.25;;;12.20;99.90;;;;;;5038547;28;20176;-83
2023/03/23 03:47:40;;;;;;;65.70;7.72;;;12.20;99.90;;;;;;5038546;28;20196;-83
2023/03/23 03:50:06;;;;;;;65.10;8.47;;;12.20;99.90;;;;;;5039290;28;20659;-83
2023/03/23 03:52:32;;;;;;;66.15;7.20;;;12.20;99.90;;;;;;5039028;28;20612;-83
2023/03/23 03:54:58;;;;;;;65.47;8.30;;;12.20;99.90;;;;;;5038976;28;20189;-83
2023/03/23 03:57:24;;;;;;;67.40;7.67;;;12.20;99.90;;;;;;5035688;28;20204;-83
2023/03/23 03:59:51;;;;;;;65.57;8.15;;;12.20;99.90;;;;;;5021727;28;20172;-83
2023/03/23 04:02:19;;;;;;;66.10;6.80;;;12.20;99.90;;;;;;5038442;28;20177;-83
2023/03/23 04:04:49;;;;;;;65.60;7.47;;;12.20;99.90;;;;;;5020568;28;20169;-83
2023/03/23 04:07:16;;;;;;;66.10;7.60;;;12.20;99.90;;;;;;5020162;28;20180;-83
2023/03/23 04:09:43;;;;;;;65.93;8.30;;;12.20;99.90;;;;;;5038585;28;20168;-83
2023/03/23 04:12:09;;;;;;;65.38;7.25;;;12.30;99.90;;;;;;5038705;28;20648;-83
2023/03/23 04:14:35;;;;;;;66.10;7.10;;;12.30;99.90;;;;;;5038938;28;20216;-83
2023/03/23 04:17:00;;;;;;;64.87;7.03;;;12.20;99.90;;;;;;5032255;28;20161;-83
2023/03/23 04:19:28;;;;;;;66.90;7.30;;;12.30;99.90;;;;;;5054575;28;20583;-83
2023/03/23 04:21:54;;;;;;;68.55;7.22;;;12.20;99.90;;;;;;5031121;28;20479;-83
2023/03/23 04:24:21;;;;;;;65.72;6.88;;;12.20;99.90;;;;;;5042212;28;20161;-83
2023/03/23 04:26:47;;;;;;;67.10;6.93;;;12.30;99.90;;;;;;5050447;28;20169;-83
2023/03/23 04:29:13;;;;;;;65.32;7.38;;;12.20;99.90;;;;;;5043049;28;20211;-83
2023/03/23 04:31:40;;;;;;;65.73;7.13;;;12.20;99.90;;;;;;5040987;28;20667;-83
2023/03/23 04:34:06;;;;;;;65.10;7.15;;;12.20;99.90;;;;;;5023897;28;20435;-83
2023/03/23 04:36:33;;;;;;;67.20;8.10;;;12.20;99.90;;;;;;5039720;28;20165;-83
2023/03/23 04:39:00;;;;;;;67.00;8.73;;;12.20;99.90;;;;;;5042772;28;20179;-83
2023/03/23 04:41:26;;;;;;;66.10;7.90;;;12.20;99.90;;;;;;5024469;28;20177;-83
2023/03/23 04:43:53;;;;;;;66.95;8.88;;;12.20;99.90;;;;;;5034620;28;20200;-83
2023/03/23 04:46:21;;;;;;;66.20;8.02;;;12.20;99.90;;;;;;5042836;28;20189;-83
2023/03/23 04:48:47;;;;;;;66.47;7.50;;;12.30;99.90;;;;;;5024740;28;20196;-83
2023/03/23 04:51:13;;;;;;;66.38;7.55;;;12.30;99.90;;;;;;5042335;28;20244;-83
2023/03/23 04:53:39;;;;;;;66.10;7.33;;;12.20;99.90;;;;;;5042666;28;20668;-83
2023/03/23 04:56:05;;;;;;;66.30;7.13;;;12.20;99.90;;;;;;5037137;28;20407;-83
2023/03/23 04:58:33;;;;;;;67.05;7.78;;;12.20;99.90;;;;;;5042147;28;20404;-83
2023/03/23 05:01:00;;;;;;;66.10;7.40;;;12.20;99.90;;;;;;5035421;28;20560;-83
2023/03/23 05:03:26;;;;;;;66.10;8.13;;;12.20;99.90;;;;;;5041111;28;20256;-83
2023/03/23 05:05:53;;;;;;;65.60;7.80;;;12.20;99.90;;;;;;5034059;28;20200;-83
2023/03/23 05:08:25;;;;;;;67.68;10.15;;;12.20;99.90;;;;;;5041998;28;20221;-83
2023/03/23 05:10:56;;;;;;;65.97;8.35;;;12.10;99.90;;;;;;5042520;28;20552;-84
2023/03/23 05:13:22;;;;;;;65.45;7.45;;;12.10;99.90;;;;;;5055537;28;20189;-84
2023/03/23 05:15:48;;;;;;;66.55;8.57;;;12.10;99.90;;;;;;5042981;28;20165;-83
2023/03/23 05:18:14;;;;;;;66.23;8.40;;;12.10;99.90;;;;;;5042333;28;20176;-83
2023/03/23 05:20:41;;;;;;;65.95;7.78;;;12.10;99.90;;;;;;5041837;28;20981;-83
2023/03/23 05:23:08;;;;;;;66.07;7.22;;;12.10;99.90;;;;;;5041659;28;20266;-83
2023/03/23 05:25:39;;;;;;;67.20;7.85;;;12.10;99.90;;;;;;5024745;28;20260;-83
2023/03/23 05:28:08;;;;;;;67.95;8.00;;;12.20;99.90;;;;;;5025102;28;20608;-83
2023/03/23 05:30:34;;;;;;;67.28;8.30;;;12.20;99.90;;;;;;5042402;28;20188;-83
2023/03/23 05:33:02;;;;;;;66.85;9.57;;;12.10;99.90;;;;;;5042058;28;20221;-83
2023/03/23 05:35:29;;;;;;;66.40;9.65;;;12.20;99.90;;;;;;5042429;28;20163;-83
2023/03/23 05:37:56;;;;;;;65.97;6.97;;;12.10;99.90;;;;;;5042220;28;20169;-83
2023/03/23 05:40:23;;;;;;;68.95;9.50;;;12.20;99.90;;;;;;5039098;28;20173;-83
2023/03/23 05:42:48;;;;;;;66.63;8.60;;;12.20;99.90;;;;;;5034110;28;20232;-84
2023/03/23 05:45:14;;;;;;;66.00;8.67;;;12.20;99.90;;;;;;5042015;28;20165;-83
2023/03/23 05:47:43;;;;;;;68.57;7.10;;;12.20;99.90;;;;;;5102848;22;20234;-87
2023/03/23 05:50:10;;;;;;;66.65;7.95;;;12.20;99.90;;;;;;5057692;28;20188;-86
2023/03/23 05:52:36;;;;;;;66.88;8.27;;;12.20;99.90;;;;;;5056762;28;20218;-86
2023/03/23 05:55:14;;;;;;;68.15;8.55;;;12.20;99.90;;;;;;5057621;28;20168;-86
2023/03/23 05:57:39;;;;;;;68.30;8.63;;;12.20;99.90;;;;;;5058393;28;20148;-86
2023/03/23 06:00:19;;;;;;;65.50;6.40;;;12.20;99.90;;;;;;5058346;28;20587;-86
2023/03/23 06:02:46;;;;;;;67.22;7.53;;;12.20;99.90;;;;;;5058650;28;20193;-86
2023/03/23 06:05:13;;;;;;;67.40;7.63;;;12.10;99.90;;;;;;5041356;28;20176;-86
2023/03/23 06:07:42;;;;;;;66.70;7.45;;;12.10;99.90;;;;;;5040107;28;20233;-87
2023/03/23 06:10:11;;;;;;;67.65;7.40;;;12.20;99.90;;;;;;5039932;28;20188;-86
2023/03/23 06:12:39;;;;;;;66.43;7.15;;;12.20;99.90;;;;;;5040248;28;20181;-86
2023/03/23 06:15:06;;;;;;;67.05;5.90;;;12.10;99.90;;;;;;5057901;28;20643;-86
2023/03/23 06:17:36;;;;;;;65.95;4.53;;;12.20;99.90;;;;;;5058696;28;20297;-85
2023/03/23 06:20:04;;;;;;;67.97;4.97;;;12.20;99.90;;;;;;5041388;28;20164;-85
2023/03/23 06:22:30;;;;;;;68.40;5.38;;;12.30;99.90;;;;;;5041240;28;20679;-85
2023/03/23 06:24:58;;;;;;;72.03;5.80;;;12.30;99.90;;;;;;5039723;28;20176;-85
2023/03/23 06:27:24;;;;;;;68.55;6.05;;;12.30;99.90;;;;;;5057370;28;20486;-84
2023/03/23 06:29:50;;;;;;;68.30;5.60;;;12.40;99.90;;;;;;5057050;28;20204;-84
2023/03/23 06:32:16;;;;;;;65.93;5.47;;;12.40;99.90;;;;;;5039859;28;20181;-84
2023/03/23 06:34:44;;;;;;;66.63;5.00;;;12.50;99.90;;;;;;5058451;28;20448;-84
2023/03/23 06:37:11;;;;;;;65.80;4.75;;;12.40;99.90;;;;;;5059150;28;20906;-85
2023/03/23 06:39:38;;;;;;;69.88;5.45;;;12.40;99.90;;;;;;5041180;28;20173;-84
2023/03/23 06:42:04;;;;;;;66.18;5.53;;;12.40;99.90;;;;;;5041917;28;20168;-85
2023/03/23 06:44:29;;;;;;;66.87;5.00;;;12.50;99.90;;;;;;5059890;28;20563;-85
2023/03/23 06:46:55;;;;;;;67.37;5.77;;;12.50;99.90;;;;;;5040492;28;20514;-85
2023/03/23 06:49:22;;;;;;;67.63;4.90;;;12.50;99.90;;;;;;5058170;28;20251;-84
2023/03/23 06:51:47;;;;;;;69.38;6.75;;;12.60;99.90;;;;;;5041387;28;20192;-84
2023/03/23 06:54:13;;;;;;;67.90;5.60;;;12.60;99.90;;;;;;5059080;28;20711;-85
2023/03/23 06:56:38;;;;;;;66.20;4.90;;;12.60;99.90;;;;;;5058995;28;20160;-85
2023/03/23 06:59:04;;;;;;;65.67;4.80;;;12.70;99.90;;;;;;5058898;28;20173;-85
2023/03/23 07:01:30;;;;;;;65.90;4.90;;;12.70;99.90;;;;;;5059683;28;20629;-85
2023/03/23 07:03:55;;;;;;;65.27;4.80;;;12.70;99.90;;;;;;5060305;28;20602;-84
2023/03/23 07:06:22;;;;;;;67.83;5.17;;;12.70;99.90;;;;;;5060097;28;20187;-85
2023/03/23 07:08:48;;;;;;;69.65;4.88;;;12.70;99.90;;;;;;5059561;28;20247;-85
2023/03/23 07:11:13;;;;;;;64.90;5.40;;;12.70;99.90;;;;;;5060338;28;20243;-85
2023/03/23 07:13:40;;;;;;;64.90;5.53;;;12.70;99.90;;;;;;5058710;28;20656;-84
2023/03/23 07:16:06;;;;;;;67.25;5.68;;;12.70;99.90;;;;;;5058889;28;20278;-84
2023/03/23 07:18:32;;;;;;;64.88;5.15;;;12.70;99.90;;;;;;5056944;28;20156;-85
2023/03/23 07:20:58;;;;;;;65.38;6.10;;;12.70;99.10;;;;;;5040122;28;20172;-84
2023/03/23 07:23:24;;;;;;;65.82;7.25;;;12.80;99.90;;;;;;5058075;28;20193;-84
2023/03/23 07:25:50;;;;;;;65.88;5.40;;;12.80;95.20;;;;;;5058853;28;20164;-84
2023/03/23 07:28:16;;;;;;;66.40;5.17;;;12.80;95.10;;;;;;5058455;28;20167;-84
2023/03/23 07:30:42;;;;;;;68.63;5.05;;;12.90;97.20;;;;;;5058198;28;20233;-84
2023/03/23 07:33:09;;;;;;;66.82;4.43;;;13.00;94.90;;;;;;5039555;28;20184;-84
2023/03/23 07:35:35;;;;;;;66.60;5.40;;;13.00;94.80;;;;;;5039239;28;20172;-84
2023/03/23 07:38:02;;;;;;;65.10;5.40;;;13.00;93.90;;;;;;5057428;28;20236;-84
2023/03/23 07:40:28;;;;;;;66.57;5.82;;;13.00;93.20;;;;;;5057733;28;20235;-86
2023/03/23 07:42:57;;;;;;;67.78;6.38;;;13.00;91.70;;;;;;5039994;28;20196;-85
2023/03/23 07:45:24;;;;;;;66.28;7.30;;;13.10;92.20;;;;;;5057750;28;20298;-84
2023/03/23 07:47:50;;;;;;;65.78;7.70;;;13.20;89.70;;;;;;5023011;28;20204;-85
2023/03/23 07:50:16;;;;;;;65.72;9.52;;;13.20;91.70;;;;;;5058058;28;20219;-85
2023/03/23 07:52:42;;;;;;;67.00;7.63;;;13.20;80.50;;;;;;5057739;28;20196;-84
2023/03/23 07:55:17;;;;;;;66.57;7.80;;;13.20;88.10;;;;;;5057189;28;20647;-85
2023/03/23 07:57:46;;;;;;;68.72;8.50;;;13.30;87.60;;;;;;5040026;28;20156;-85
2023/03/23 08:00:20;;;;;;;66.70;9.10;;;13.30;85.50;;;;;;5044723;28;20199;-86
2023/03/23 08:02:48;;;;;;;68.35;8.27;;;13.30;87.70;;;;;;5045304;28;20188;-84
2023/03/23 08:05:14;;;;;;;66.30;8.10;;;13.50;85.10;;;;;;5045066;28;20172;-85
2023/03/23 08:07:41;;;;;;;65.90;7.50;;;13.50;80.70;;;;;;5061520;28;20167;-85
2023/03/23 08:10:12;;;;;;;67.53;6.25;;;13.50;75.70;;;;;;5043911;28;20199;-84
2023/03/23 08:12:38;;;;;;;69.13;7.40;;;13.60;70.30;;;;;;5042686;28;20192;-85
2023/03/23 08:15:06;;;;;;;65.65;7.68;;;13.60;72.60;;;;;;5059671;28;20168;-85
2023/03/23 08:17:34;;;;;;;69.00;9.05;;;13.60;76.80;;;;;;5059615;28;20157;-85
2023/03/23 08:20:00;;;;;;;68.78;7.65;;;13.60;70.10;;;;;;5042361;28;20634;-84
2023/03/23 08:22:26;;;;;;;66.57;6.35;;;13.70;72.30;;;;;;5042028;28;20553;-84
2023/03/23 08:24:52;;;;;;;69.30;5.90;;;13.70;64.70;;;;;;5060495;28;20167;-84
2023/03/23 08:27:18;;;;;;;66.95;4.47;;;13.80;73.50;;;;;;5060109;28;20418;-85
2023/03/23 08:29:47;;;;;;;66.70;5.80;;;14.00;64.40;;;;;;5060083;28;20168;-85
2023/03/23 08:32:14;;;;;;;68.57;5.27;;;13.90;58.10;;;;;;5059294;28;20191;-85
2023/03/23 08:34:41;;;;;;;65.68;4.10;;;14.00;57.80;;;;;;5041998;28;20419;-84
2023/03/23 08:37:08;;;;;;;68.10;4.63;;;14.00;54.10;;;;;;5042173;28;20172;-84
2023/03/23 08:39:34;;;;;;;67.20;4.17;;;14.00;50.90;;;;;;5041818;28;20259;-84
2023/03/23 08:42:00;;;;;;;65.47;4.20;;;14.10;54.80;;;;;;5059627;28;20480;-84
2023/03/23 08:44:25;;;;;;;67.50;5.23;;;14.20;49.70;;;;;;5041615;28;20245;-85
2023/03/23 08:46:56;;;;;;;69.17;4.97;;;14.20;49.50;;;;;;5059127;28;20311;-85
2023/03/23 08:49:22;;;;;;;65.90;5.70;;;14.20;46.20;;;;;;5039960;28;20441;-84
2023/03/23 08:51:48;;;;;;;71.55;6.00;;;14.30;40.90;;;;;;5043478;28;20470;-85
2023/03/23 08:54:14;;;;;;;70.43;5.03;;;14.40;44.60;;;;;;5060781;28;20242;-85
2023/03/23 08:56:40;;;;;;;66.30;5.33;;;14.50;40.90;;;;;;5060548;28;20165;-84
2023/03/23 08:59:06;;;;;;;72.67;4.90;;;14.60;33.20;;;;;;5060209;28;20161;-85
2023/03/23 09:01:32;;;;;;;67.20;4.28;;;14.50;34.50;;;;;;5040717;28;20417;-84
2023/03/23 09:03:59;;;;;;;68.73;4.57;;;14.60;34.20;;;;;;5040623;28;20192;-85
2023/03/23 09:06:25;;;;;;;65.37;3.70;;;14.70;31.20;;;;;;5041990;28;20849;-85
2023/03/23 09:08:51;;;;;;;68.47;3.70;;;14.80;30.80;;;;;;5040119;28;20454;-85
2023/03/23 09:11:17;;;;;;;65.07;3.17;;;14.80;26.60;;;;;;5059310;28;20446;-84
2023/03/23 09:13:43;;;;;;;67.47;4.03;;;14.90;24.60;;;;;;5060084;28;20427;-84
2023/03/23 09:16:09;;;;;;;65.37;3.43;;;14.90;29.90;;;;;;5040815;28;20628;-85
2023/03/23 09:18:35;;;;;;;67.47;3.03;;;15.00;26.80;;;;;;5041717;28;20176;-85
2023/03/23 09:21:03;;;;;;;67.77;3.30;;;15.20;20.20;;;;;;5059090;28;20414;-85
2023/03/23 09:23:29;;;;;;;66.47;3.03;;;15.30;21.40;;;;;;5060240;28;20460;-85
2023/03/23 09:25:55;;;;;;;64.07;3.40;;;15.30;20.90;;;;;;5061226;28;20503;-85
2023/03/23 09:28:21;;;;;;;68.87;3.83;;;15.20;10.00;;;;;;5060344;28;20438;-85
2023/03/23 09:30:47;;;;;;;69.37;3.97;;;15.30;16.40;;;;;;5058981;28;20246;-85
2023/03/23 09:33:13;;;;;;;68.50;4.17;;;15.40;14.20;;;;;;5059353;28;20419;-85
2023/03/23 09:35:41;;;;;;;66.20;4.10;;;15.30;6.70;;;;;;5059035;28;20833;-85
2023/03/23 09:38:09;;;;;;;76.60;4.37;;;15.40;5.60;;;;;;5060256;28;20403;-85
2023/03/23 09:40:48;;;;;;;67.77;3.50;;;15.40;5.80;;;;;;5043716;28;20479;-86
2023/03/23 09:43:45;;;;;;;66.40;4.43;;;15.40;3.10;;;;;;5059970;28;20426;-85
2023/03/23 09:46:38;;;;;;;67.47;3.73;;;15.30;1.00;;;;;;5042329;28;20482;-84
2023/03/23 09:49:33;;;;;;;66.83;3.30;;;15.40;1.00;;;;;;5059645;28;20427;-85
2023/03/23 09:52:14;;;;;;;67.03;3.40;;;15.30;1.00;;;;;;5052639;28;20470;-85
2023/03/23 09:54:43;;;;;;;67.27;3.80;;;15.20;1.00;;;;;;5041178;28;20480;-85
2023/03/23 09:57:27;;;;;;;69.50;3.80;;;15.20;1.00;;;;;;5043074;28;20428;-85
2023/03/23 10:00:04;;;;;;;66.40;3.87;;;15.20;1.00;;;;;;5059615;28;20383;-85
2023/03/23 10:02:38;;;;;;;70.40;4.20;;;15.00;1.00;;;;;;5058490;28;20419;-84
2023/03/23 10:05:31;;;;;;;65.77;4.23;;;15.00;2.20;;;;;;5056826;28;20438;-85
2023/03/23 10:07:56;;;;;;;66.80;4.27;;;15.00;6.80;;;;;;5057749;28;20402;-84
2023/03/23 10:10:39;;;;;;;68.27;5.00;;;15.20;11.90;;;;;;5039808;28;20455;-85
2023/03/23 10:13:36;;;;;;;67.43;4.07;;;15.40;10.20;;;;;;5039028;28;20223;-85
2023/03/23 10:16:08;;;;;;;67.70;3.83;;;15.70;12.40;;;;;;5003786;28;20411;-85
2023/03/23 10:18:34;;;;;;;66.70;3.60;;;15.80;14.80;;;;;;5057711;28;20379;-85
2023/03/23 10:21:01;;;;;;;66.17;3.03;;;15.80;12.70;;;;;;5038639;28;20418;-85
2023/03/23 10:23:51;;;;;;;68.20;4.17;;;15.70;13.50;;;;;;5056167;28;20423;-85
2023/03/23 10:27:08;;;;;;;64.77;3.40;;;15.50;16.00;;;;;;5039112;28;20407;-85
2023/03/23 10:29:43;;;;;;;66.10;3.03;;;15.30;23.40;;;;;;5006439;28;20411;-85
2023/03/23 10:32:13;;;;;;;67.70;3.77;;;15.10;28.70;;;;;;5055996;28;20391;-85
2023/03/23 10:35:02;;;;;;;65.17;4.10;;;14.90;39.30;;;;;;5056985;28;20517;-85
2023/03/23 10:37:32;;;;;;;63.37;2.50;;;14.80;42.80;;;;;;5039728;28;20395;-85
2023/03/23 10:40:03;;;;;;;64.17;4.30;;;14.80;45.00;;;;;;5041063;28;20899;-86
2023/03/23 10:42:35;;;;;;;65.70;4.07;;;14.70;51.00;;;;;;5044871;28;20442;-86
2023/03/23 10:45:13;;;;;;;66.17;5.60;;;14.70;56.40;;;;;;5061346;28;20395;-86
2023/03/23 10:47:43;;;;;;;65.23;4.67;;;14.90;64.20;;;;;;5044111;28;20419;-85
2023/03/23 10:50:15;;;;;;;64.60;5.47;;;15.10;59.30;;;;;;5043010;28;20450;-86
2023/03/23 10:52:44;;;;;;;65.17;4.07;;;15.20;56.70;;;;;;5045973;28;20427;-86
2023/03/23 10:55:14;;;;;;;63.97;4.57;;;15.20;51.70;;;;;;5042338;28;20494;-86
2023/03/23 10:57:44;;;;;;;67.27;4.33;;;15.00;54.20;;;;;;5045979;28;20767;-86
2023/03/23 11:00:21;;;;;;;63.20;3.27;;;15.10;51.50;;;;;;5064827;28;20415;-86
2023/03/23 11:03:17;;;;;;;64.50;4.00;;;15.20;46.00;;;;;;5062784;28;20794;-86
2023/03/23 11:05:42;;;;;;;66.13;4.43;;;15.20;49.90;;;;;;5065017;28;20407;-87
2023/03/23 11:08:15;;;;;;;65.67;4.63;;;15.20;50.00;;;;;;5046000;28;20410;-86
2023/03/23 11:10:48;;;;;;;66.27;3.73;;;15.40;49.90;;;;;;5065048;28;20194;-86
2023/03/23 11:13:16;;;;;;;68.50;3.90;;;15.50;43.30;;;;;;5046597;28;20461;-86
2023/03/23 11:15:47;;;;;;;63.80;3.80;;;15.50;43.50;;;;;;5064682;28;20898;-86
2023/03/23 11:18:20;;;;;;;65.90;4.30;;;15.60;45.80;;;;;;5045345;28;20399;-87
2023/03/23 11:20:50;;;;;;;65.63;3.53;;;15.50;36.60;;;;;;5047749;28;20403;-86
2023/03/23 11:23:26;;;;;;;65.57;3.47;;;15.60;34.60;;;;;;5047751;28;20431;-86
2023/03/23 11:26:17;;;;;;;63.57;3.70;;;15.50;37.70;;;;;;5047950;28;20918;-87
2023/03/23 11:29:03;;;;;;;65.33;4.27;;;15.50;35.00;;;;;;5046348;28;20417;-87
2023/03/23 11:31:38;;;;;;;66.57;3.80;;;15.50;37.00;;;;;;5064771;28;20434;-86
2023/03/23 11:34:19;;;;;;;64.13;3.40;;;15.50;41.40;;;;;;5045185;28;20431;-86
2023/03/23 11:37:19;;;;;;;67.03;3.83;;;15.50;38.60;;;;;;5046244;28;20498;-86
2023/03/23 11:40:05;;;;;;;64.43;2.80;;;15.30;41.50;;;;;;5035624;28;20403;-87
2023/03/23 11:42:46;;;;;;;68.07;3.17;;;15.40;31.70;;;;;;5047647;28;20428;-86
2023/03/23 11:45:22;;;;;;;64.00;2.90;;;15.30;38.90;;;;;;5064862;28;20434;-87
2023/03/23 11:47:53;;;;;;;67.20;3.50;;;15.20;44.50;;;;;;5123832;23;20474;-82
2023/03/23 11:50:33;;;;;;;64.47;3.40;;;15.10;41.40;;;;;;5062953;28;20939;-83
2023/03/23 11:53:23;;;;;;;65.50;4.20;;;15.10;44.80;;;;;;5062841;28;20422;-83
2023/03/23 11:55:50;;;;;;;64.60;4.17;;;15.00;50.10;;;;;;5054150;28;20469;-83
2023/03/23 11:58:18;;;;;;;65.80;5.20;;;15.10;52.40;;;;;;5064142;28;20403;-83
2023/03/23 12:01:05;;;;;;;63.40;3.87;;;15.10;53.40;;;;;;5062577;28;20402;-83
2023/03/23 12:03:56;;;;;;;64.87;3.30;;;15.30;42.30;;;;;;5062673;28;20415;-83
2023/03/23 12:06:49;;;;;;;68.07;3.27;;;15.20;41.60;;;;;;5063174;28;20712;-82
2023/03/23 12:09:29;;;;;;;70.90;4.40;;;15.30;36.90;;;;;;5064355;28;20477;-82
2023/03/23 12:12:05;;;;;;;66.20;4.27;;;15.30;43.90;;;;;;5056646;28;20443;-82
2023/03/23 12:15:09;;;;;;;63.63;3.00;;;15.50;42.00;;;;;;5063966;28;20387;-82
2023/03/23 12:18:08;;;;;;;65.37;3.90;;;15.50;37.80;;;;;;5041265;28;20415;-82
2023/03/23 12:20:53;;;;;;;66.70;4.50;;;15.50;49.50;;;;;;5063305;28;20499;-82
2023/03/23 12:23:30;;;;;;;65.33;3.40;;;15.90;43.80;;;;;;5064424;28;20422;-83
2023/03/23 12:26:08;;;;;;;65.17;2.77;;;16.30;37.00;;;;;;5057068;28;20413;-83
2023/03/23 12:28:40;;;;;;;65.33;3.90;;;16.50;24.80;;;;;;5063183;28;20407;-82
2023/03/23 12:31:32;;;;;;;65.23;3.23;;;16.50;16.80;;;;;;5057360;28;20435;-83
2023/03/23 12:34:12;;;;;;;65.03;2.97;;;16.40;21.00;;;;;;5064506;28;20802;-82
2023/03/23 12:36:50;;;;;;;69.27;3.53;;;16.30;20.80;;;;;;5061153;28;20376;-83
2023/03/23 12:39:19;;;;;;;66.40;4.10;;;16.30;15.10;;;;;;5062274;28;20401;-82
2023/03/23 12:42:09;;;;;;;66.60;4.07;;;16.30;13.30;;;;;;5063283;28;20898;-83
2023/03/23 12:45:08;;;;;;;64.70;3.40;;;16.10;17.30;;;;;;5064701;28;20399;-83
2023/03/23 12:47:47;;;;;;;68.80;3.60;;;16.00;21.90;;;;;;5035310;28;20414;-82
2023/03/23 12:50:22;;;;;;;66.37;3.67;;;15.90;20.40;;;;;;5067309;28;20433;-83
2023/03/23 12:53:21;;;;;;;68.03;4.23;;;16.10;21.50;;;;;;5064213;28;20418;-82
2023/03/23 12:56:24;;;;;;;66.40;3.83;;;16.20;21.60;;;;;;5058249;28;20501;-82